.
WxDataArchive / Data Records for 2013-04-20
2013-04-19 April 2013 2013-04-21

Data Records for Saturday, 20 April 2013

Time	Temp	Chill	HIndex	Humid	Dewpt	 Wind 	HiWind	WindDir	Rain 	Barom 
-----	----	-----	------	-----	-----	------	------	-------	-----	----- 
00:00	36.8	33.6	36.8	75	29.6	4	12	248	0.00	29.868 
00:05	36.8	36.8	36.8	75	29.6	3	7	248	0.00	29.868 
00:10	36.8	32.7	36.8	73	29.0	5	14	248	0.00	29.868 
00:15	36.9	33.7	36.9	73	29.1	4	14	248	0.00	29.870 
00:20	36.8	33.6	36.8	73	29.0	4	9	248	0.00	29.870 
00:25	36.8	33.6	36.8	72	28.6	4	11	248	0.00	29.870 
00:30	36.8	36.8	36.8	72	28.6	3	10	248	0.00	29.873 
00:35	36.8	33.6	36.8	72	28.6	4	10	248	0.00	29.873 
00:40	36.8	32.7	36.8	73	29.0	5	12	248	0.00	29.873 
00:45	36.5	32.4	36.5	73	28.7	5	14	248	0.00	29.876 
00:50	36.2	32.9	36.2	75	29.1	4	10	248	0.00	29.876 
00:55	35.9	35.9	35.9	75	28.8	2	7	248	0.00	29.876 
01:00	35.8	35.8	35.8	76	29.0	3	9	248	0.00	29.886 
01:05	35.6	35.6	35.6	77	29.1	3	11	270	0.00	29.886 
01:10	35.6	35.6	35.6	76	28.8	3	9	248	0.00	29.886 
01:15	35.5	35.5	35.5	76	28.7	3	10	248	0.00	29.891 
01:20	35.3	35.3	35.3	76	28.5	3	9	248	0.00	29.891 
01:25	35.3	35.3	35.3	76	28.5	3	6	248	0.00	29.891 
01:30	35.3	35.3	35.3	76	28.5	2	5	248	0.00	29.901 
01:35	35.2	35.2	35.2	76	28.4	1	4	248	0.00	29.901 
01:40	35.3	35.3	35.3	76	28.5	2	5	248	0.00	29.901 
01:45	35.2	35.2	35.2	76	28.4	1	4	248	0.00	29.898 
01:50	35.2	35.2	35.2	76	28.4	2	5	248	0.00	29.898 
01:55	35.0	35.0	35.0	77	28.5	1	2	248	0.00	29.898 
02:00	35.0	35.0	35.0	77	28.5	2	5	248	0.00	29.906 
02:05	35.3	35.3	35.3	77	28.8	2	4	248	0.00	29.906 
02:10	35.0	35.0	35.0	77	28.5	2	5	248	0.00	29.906 
02:15	34.6	34.6	34.6	77	28.1	3	9	270	0.00	29.916 
02:20	34.6	34.6	34.6	78	28.5	2	5	248	0.00	29.916 
02:25	34.4	34.4	34.4	78	28.3	2	4	248	0.00	29.916 
02:30	34.3	34.3	34.3	79	28.5	2	5	248	0.00	29.919 
02:35	34.3	34.3	34.3	78	28.2	2	6	248	0.00	29.919 
02:40	34.3	34.3	34.3	77	27.9	1	3	248	0.00	29.919 
02:45	34.3	34.3	34.3	76	27.5	2	4	248	0.00	29.920 
02:50	34.3	34.3	34.3	75	27.2	2	5	248	0.00	29.920 
02:55	34.3	34.3	34.3	75	27.2	2	6	248	0.00	29.920 
03:00	34.3	34.3	34.3	76	27.5	1	4	248	0.00	29.921 
03:05	34.1	34.1	34.1	77	27.7	1	5	248	0.00	29.921 
03:10	34.1	34.1	34.1	79	28.3	2	5	248	0.00	29.921 
03:15	34.3	34.3	34.3	79	28.5	2	6	248	0.00	29.929 
03:20	34.3	34.3	34.3	79	28.5	1	5	248	0.00	29.929 
03:25	34.4	34.4	34.4	77	27.9	3	5	248	0.00	29.929 
03:30	34.4	34.4	34.4	77	27.9	1	6	248	0.00	29.936 
03:35	34.4	34.4	34.4	75	27.3	3	7	248	0.00	29.936 
03:40	34.3	34.3	34.3	75	27.2	1	5	248	0.00	29.936 
03:45	34.3	34.3	34.3	75	27.2	2	5	248	0.00	29.939 
03:50	34.1	34.1	34.1	75	27.0	2	5	248	0.00	29.939 
03:55	34.1	34.1	34.1	76	27.3	2	5	248	0.00	29.939 
04:00	34.1	34.1	34.1	77	27.7	2	5	270	0.00	29.946 
04:05	34.1	34.1	34.1	77	27.7	2	4	270	0.00	29.946 
04:10	34.0	34.0	34.0	78	27.9	2	4	248	0.00	29.946 
04:15	34.0	34.0	34.0	78	27.9	3	7	248	0.00	29.954 
04:20	34.0	34.0	34.0	78	27.9	2	6	270	0.00	29.954 
04:25	34.0	34.0	34.0	78	27.9	2	4	270	0.00	29.954 
04:30	33.8	33.8	33.8	79	28.0	2	4	270	0.00	29.959 
04:35	33.7	33.7	33.7	79	27.9	1	4	270	0.00	29.959 
04:40	33.5	33.5	33.5	79	27.7	1	3	270	0.00	29.959 
04:45	33.5	33.5	33.5	80	28.0	1	4	270	0.00	29.967 
04:50	33.5	33.5	33.5	80	28.0	2	5	248	0.00	29.967 
04:55	33.7	33.7	33.7	80	28.2	1	4	248	0.00	29.967 
05:00	33.8	33.8	33.8	80	28.3	2	5	248	0.00	29.974 
05:05	34.0	34.0	34.0	80	28.5	1	4	248	0.00	29.974 
05:10	34.0	34.0	34.0	80	28.5	0	2	248	0.00	29.974 
05:15	34.1	34.1	34.1	81	28.9	1	3	248	0.00	29.984 
05:20	33.7	33.7	33.7	81	28.5	2	6	270	0.00	29.984 
05:25	32.8	32.8	32.8	82	27.9	2	5	270	0.00	29.984 
05:30	32.2	32.2	32.2	84	27.9	2	5	270	0.00	29.997 
05:35	32.1	32.1	32.1	86	28.4	2	3	270	0.00	29.997 
05:40	32.1	32.1	32.1	87	28.7	2	4	270	0.00	29.997 
05:45	32.1	32.1	32.1	87	28.7	1	4	248	0.00	30.001 
05:50	32.2	32.2	32.2	88	29.1	2	5	248	0.00	30.001 
05:55	32.2	32.2	32.2	87	28.8	2	4	248	0.00	30.001 
06:00	32.4	32.4	32.4	87	29.0	1	4	248	0.00	30.005 
06:05	32.4	32.4	32.4	87	29.0	2	5	248	0.00	30.005 
06:10	32.4	32.4	32.4	86	28.7	1	3	270	0.00	30.005 
06:15	32.4	32.4	32.4	85	28.4	2	5	270	0.00	30.013 
06:20	32.2	32.2	32.2	84	27.9	2	5	270	0.00	30.013 
06:25	32.2	32.2	32.2	84	27.9	2	5	270	0.00	30.013 
06:30	32.2	32.2	32.2	83	27.6	2	4	270	0.00	30.018 
06:35	32.2	32.2	32.2	82	27.3	2	5	270	0.00	30.018 
06:40	32.2	32.2	32.2	82	27.3	2	4	270	0.00	30.018 
06:45	32.2	32.2	32.2	82	27.3	2	4	270	0.00	30.033 
06:50	32.2	32.2	32.2	82	27.3	2	7	270	0.00	30.033 
06:55	32.2	32.2	32.2	82	27.3	1	3	270	0.00	30.033 
07:00	32.2	32.2	32.2	82	27.3	1	3	270	0.00	30.044 
07:05	32.2	32.2	32.2	83	27.6	1	3	270	0.00	30.044 
07:10	32.2	32.2	32.2	83	27.6	1	3	270	0.00	30.044 
07:15	32.2	32.2	32.2	82	27.3	1	4	270	0.00	30.055 
07:20	32.1	32.1	32.1	82	27.2	2	4	270	0.00	30.055 
07:25	32.2	32.2	32.2	81	27.0	2	5	270	0.00	30.055 
07:30	32.2	32.2	32.2	81	27.0	1	4	338	0.00	30.065 
07:35	32.4	32.4	32.4	80	26.9	1	4	248	0.00	30.065 
07:40	32.5	32.5	32.5	79	26.7	1	3	248	0.00	30.065 
07:45	32.5	32.5	32.5	79	26.7	0	2	248	0.00	30.078 
07:50	32.5	32.5	32.5	78	26.4	1	2	248	0.00	30.078 
07:55	32.8	32.8	32.8	76	26.1	2	4	248	0.00	30.078 
08:00	33.1	33.1	33.1	76	26.4	1	2	248	0.00	30.088 
08:05	33.4	33.4	33.4	75	26.3	2	4	248	0.00	30.088 
08:10	33.7	33.7	33.7	74	26.3	2	4	248	0.00	30.088 
08:15	33.8	33.8	33.8	73	26.1	1	4	248	0.00	30.097 
08:20	34.0	34.0	34.0	73	26.3	1	2	338	0.00	30.097 
08:25	34.1	34.1	34.1	73	26.4	2	4	270	0.00	30.097 
08:30	34.0	34.0	34.0	73	26.3	1	3	270	0.00	30.111 
08:35	34.0	34.0	34.0	73	26.3	1	3	270	0.00	30.111 
08:40	34.0	34.0	34.0	73	26.3	2	5	270	0.00	30.111 
08:45	34.0	34.0	34.0	73	26.3	2	5	270	0.00	30.119 
08:50	34.0	34.0	34.0	73	26.3	1	3	270	0.00	30.119 
08:55	34.3	34.3	34.3	73	26.6	1	4	270	0.00	30.119 
09:00	34.6	34.6	34.6	73	26.9	2	4	270	0.00	30.129 
09:05	34.6	34.6	34.6	70	25.8	1	4	270	0.01	30.129 
09:10	35.0	35.0	35.0	69	25.9	2	5	248	0.00	30.129 
09:15	34.9	34.9	34.9	67	25.1	2	5	270	0.00	30.131 
09:20	35.0	35.0	35.0	65	24.4	2	7	270	0.00	30.131 
09:25	35.6	35.6	35.6	65	25.0	1	3	270	0.00	30.131 
09:30	36.0	36.0	36.0	64	25.0	2	5	270	0.00	30.141 
09:35	35.9	35.9	35.9	62	24.2	2	4	248	0.00	30.141 
09:40	36.0	36.0	36.0	62	24.3	2	5	270	0.00	30.141 
09:45	36.6	36.6	36.6	62	24.8	2	4	270	0.01	30.148 
09:50	36.6	36.6	36.6	61	24.4	3	6	270	0.00	30.148 
09:55	36.3	36.3	36.3	62	24.5	2	5	270	0.00	30.148 
10:00	36.3	36.3	36.3	59	23.4	3	6	270	0.00	30.156 
10:05	36.3	36.3	36.3	58	23.0	3	6	270	0.00	30.156 
10:10	36.3	36.3	36.3	55	21.7	3	6	270	0.00	30.156 
10:15	36.8	36.8	36.8	55	22.2	3	6	270	0.00	30.159 
10:20	36.9	36.9	36.9	55	22.3	2	6	248	0.00	30.159 
10:25	37.2	37.2	37.2	55	22.5	3	7	248	0.00	30.159 
10:30	37.0	37.0	37.0	53	21.5	3	7	270	0.00	30.170 
10:35	36.6	33.4	36.6	51	20.2	4	8	248	0.00	30.170 
10:40	37.0	37.0	37.0	52	21.0	3	7	270	0.00	30.170 
10:45	37.5	34.4	37.5	51	21.0	4	7	270	0.01	30.175 
10:50	38.3	38.3	38.3	52	22.2	3	6	270	0.00	30.175 
10:55	38.2	35.2	38.2	49	20.7	4	7	270	0.00	30.175 
11:00	38.3	38.3	38.3	51	21.8	3	6	270	0.00	30.186 
11:05	38.8	38.8	38.8	49	21.3	3	6	248	0.00	30.186 
11:10	38.9	38.9	38.9	47	20.4	3	7	270	0.00	30.186 
11:15	39.2	39.2	39.2	48	21.2	3	8	270	0.00	30.189 
11:20	39.8	39.8	39.8	51	23.2	2	7	270	0.00	30.189 
11:25	39.6	39.6	39.6	48	21.5	3	6	248	0.00	30.189 
11:30	39.2	39.2	39.2	49	21.7	3	5	270	0.00	30.198 
11:35	39.8	39.8	39.8	50	22.7	2	5	248	0.00	30.198 
11:40	39.2	39.2	39.2	46	20.2	2	7	338	0.00	30.198 
11:45	39.3	39.3	39.3	48	21.3	2	5	270	0.00	30.204 
11:50	39.8	39.8	39.8	47	21.2	2	5	270	0.00	30.204 
11:55	39.9	39.9	39.9	48	21.8	3	10	270	0.00	30.204 
12:00	40.2	40.2	40.2	49	22.6	2	5	248	0.00	30.209 
12:05	40.8	40.8	40.8	48	22.6	3	7	270	0.00	30.209 
12:10	40.9	40.9	40.9	48	22.7	3	7	292	0.00	30.209 
12:15	41.3	41.3	41.3	47	22.6	2	4	315	0.00	30.217 
12:20	41.3	41.3	41.3	47	22.6	2	4	248	0.00	30.217 
12:25	40.9	40.9	40.9	45	21.2	3	7	248	0.00	30.217 
12:30	41.2	41.2	41.2	48	23.0	2	8	248	0.00	30.220 
12:35	41.2	41.2	41.2	45	21.5	3	7	270	0.00	30.220 
12:40	41.2	41.2	41.2	47	22.5	2	9	248	0.00	30.220 
12:45	41.3	41.3	41.3	47	22.6	3	6	270	0.00	30.227 
12:50	41.6	41.6	41.6	47	22.9	3	7	248	0.00	30.227 
12:55	41.9	41.9	41.9	46	22.6	3	6	270	0.00	30.227 
13:00	41.5	41.5	41.5	45	21.8	3	6	248	0.00	30.228 
13:05	42.1	42.1	42.1	46	22.8	3	6	270	0.00	30.228 
13:10	41.6	39.2	41.6	45	21.9	4	10	270	0.00	30.228 
13:15	41.8	41.8	41.8	47	23.1	2	5	338	0.00	30.233 
13:20	41.6	41.6	41.6	47	22.9	2	9	270	0.00	30.233 
13:25	42.1	42.1	42.1	46	22.8	2	5	270	0.00	30.233 
13:30	42.2	42.2	42.2	46	22.9	3	11	270	0.00	30.233 
13:35	42.6	42.6	42.6	46	23.3	3	7	270	0.00	30.233 
13:40	42.5	42.5	42.5	46	23.2	3	6	270	0.00	30.233 
13:45	42.2	42.2	42.2	46	22.9	3	6	270	0.00	30.234 
13:50	42.2	42.2	42.2	47	23.4	3	5	248	0.00	30.234 
13:55	41.5	41.5	41.5	44	21.2	3	7	270	0.00	30.234 
14:00	41.9	41.9	41.9	44	21.6	3	7	270	0.00	30.245 
14:05	42.1	42.1	42.1	45	22.3	3	5	248	0.00	30.245 
14:10	41.9	41.9	41.9	46	22.6	3	7	248	0.00	30.245 
14:15	42.6	42.6	42.6	47	23.8	3	6	270	0.00	30.246 
14:20	43.6	43.6	43.6	46	24.2	3	5	270	0.00	30.246 
14:25	43.5	43.5	43.5	43	22.5	3	6	270	0.00	30.246 
14:30	42.3	42.3	42.3	43	21.4	3	9	338	0.00	30.249 
14:35	42.8	42.8	42.8	45	22.9	3	9	0	0.00	30.249 
14:40	42.8	42.8	42.8	44	22.4	3	9	315	0.00	30.249 
14:45	42.2	42.2	42.2	43	21.3	3	6	270	0.00	30.256 
14:50	42.5	42.5	42.5	43	21.6	3	6	270	0.00	30.256 
14:55	42.9	42.9	42.9	44	22.5	3	9	248	0.00	30.256 
15:00	43.5	43.5	43.5	43	22.5	3	5	248	0.00	30.262 
15:05	43.9	43.9	43.9	44	23.4	3	6	248	0.00	30.262 
15:10	43.5	43.5	43.5	41	21.4	3	6	270	0.00	30.262 
15:15	42.3	42.3	42.3	42	20.9	2	6	338	0.00	30.265 
15:20	42.3	42.3	42.3	43	21.4	2	5	248	0.00	30.265 
15:25	43.2	43.2	43.2	45	23.3	3	9	270	0.00	30.265 
15:30	43.3	43.3	43.3	43	22.3	3	6	270	0.00	30.267 
15:35	43.3	43.3	43.3	42	21.8	3	7	315	0.00	30.267 
15:40	43.2	43.2	43.2	40	20.5	3	6	270	0.00	30.267 
15:45	43.9	43.9	43.9	41	21.7	2	6	248	0.00	30.273 
15:50	44.3	44.3	44.3	39	20.9	3	7	270	0.00	30.273 
15:55	44.9	43.0	44.9	41	22.6	4	7	270	0.00	30.273 
16:00	45.4	45.4	45.4	40	22.5	3	6	270	0.00	30.275 
16:05	44.8	44.8	44.8	40	22.0	2	6	248	0.00	30.275 
16:10	44.8	42.9	44.8	40	22.0	4	6	270	0.00	30.275 
16:15	44.1	44.1	44.1	39	20.7	2	5	270	0.00	30.280 
16:20	43.5	43.5	43.5	39	20.2	3	7	315	0.00	30.280 
16:25	43.3	43.3	43.3	40	20.6	1	5	315	0.00	30.280 
16:30	43.6	43.6	43.6	41	21.5	3	7	338	0.00	30.284 
16:35	43.8	43.8	43.8	42	22.2	3	7	315	0.00	30.284 
16:40	43.9	43.9	43.9	43	22.9	2	5	270	0.00	30.284 
16:45	44.2	44.2	44.2	40	21.4	3	8	270	0.00	30.291 
16:50	44.6	44.6	44.6	41	22.4	2	5	248	0.00	30.291 
16:55	44.2	44.2	44.2	39	20.8	3	7	338	0.00	30.291 
17:00	44.1	44.1	44.1	41	21.9	2	6	315	0.00	30.296 
17:05	43.9	43.9	43.9	38	20.0	3	10	248	0.00	30.296 
17:10	43.8	43.8	43.8	40	21.1	3	10	338	0.00	30.296 
17:15	44.1	44.1	44.1	37	19.5	3	6	270	0.00	30.306 
17:20	44.5	44.5	44.5	40	21.7	2	6	248	0.00	30.306 
17:25	44.5	44.5	44.5	38	20.5	2	5	338	0.00	30.306 
17:30	44.2	44.2	44.2	39	20.8	2	6	338	0.00	30.312 
17:35	44.5	44.5	44.5	39	21.1	2	7	270	0.00	30.312 
17:40	43.9	43.9	43.9	37	19.3	3	8	315	0.00	30.312 
17:45	43.9	43.9	43.9	38	20.0	1	4	292	0.00	30.315 
17:50	43.6	43.6	43.6	39	20.3	2	6	270	0.00	30.315 
17:55	43.5	43.5	43.5	38	19.6	3	6	270	0.00	30.315 
18:00	43.5	43.5	43.5	37	19.0	3	6	270	0.00	30.320 
18:05	43.5	43.5	43.5	39	20.2	2	6	315	0.00	30.320 
18:10	42.8	40.6	42.8	35	17.1	4	7	270	0.00	30.320 
18:15	42.5	42.5	42.5	34	16.1	2	7	338	0.00	30.329 
18:20	42.5	42.5	42.5	35	16.8	3	6	338	0.00	30.329 
18:25	42.2	42.2	42.2	35	16.5	3	7	0	0.00	30.329 
18:30	42.2	42.2	42.2	36	17.2	2	5	270	0.00	30.334 
18:35	41.9	41.9	41.9	34	15.6	2	7	270	0.00	30.334 
18:40	41.9	41.9	41.9	34	15.6	3	6	270	0.00	30.334 
18:45	41.8	41.8	41.8	33	14.8	1	3	315	0.00	30.336 
18:50	41.8	41.8	41.8	32	14.1	2	7	270	0.00	30.336 
18:55	41.6	41.6	41.6	31	13.2	2	6	338	0.00	30.336 
19:00	41.5	41.5	41.5	33	14.6	2	6	270	0.00	30.338 
19:05	41.5	41.5	41.5	33	14.6	2	5	338	0.00	30.338 
19:10	41.2	41.2	41.2	33	14.3	2	6	270	0.00	30.338 
19:15	41.1	41.1	41.1	33	14.2	2	7	270	0.00	30.338 
19:20	40.9	40.9	40.9	35	15.4	2	6	338	0.00	30.338 
19:25	40.8	40.8	40.8	35	15.3	1	4	315	0.00	30.338 
19:30	40.6	40.6	40.6	35	15.1	1	4	292	0.00	30.343 
19:35	40.6	40.6	40.6	35	15.1	1	5	315	0.00	30.343 
19:40	40.5	40.5	40.5	35	15.0	1	3	315	0.00	30.343 
19:45	40.2	40.2	40.2	36	15.4	1	4	315	0.00	30.349 
19:50	40.1	40.1	40.1	37	15.9	1	5	292	0.00	30.349 
19:55	39.8	39.8	39.8	36	15.0	2	5	338	0.00	30.349 
20:00	39.5	39.5	39.5	38	16.0	1	4	338	0.00	30.360 
20:05	39.3	39.3	39.3	38	15.8	0	2	338	0.00	30.360 
20:10	39.2	39.2	39.2	39	16.3	0	2	338	0.00	30.360 
20:15	38.9	38.9	38.9	40	16.7	0	1	338	0.00	30.362 
20:20	38.8	38.8	38.8	42	17.7	0	1	338	0.00	30.362 
20:25	38.5	38.5	38.5	42	17.4	0	1	338	0.00	30.362 
20:30	38.2	38.2	38.2	43	17.7	0	1	338	0.00	30.369 
20:35	38.0	38.0	38.0	43	17.5	0	2	338	0.00	30.369 
20:40	37.8	37.8	37.8	43	17.3	0	2	338	0.00	30.369 
20:45	37.6	37.6	37.6	43	17.2	0	2	338	0.00	30.378 
20:50	37.5	37.5	37.5	44	17.6	0	2	338	0.00	30.378 
20:55	37.3	37.3	37.3	43	16.9	0	2	0	0.00	30.378 
21:00	37.0	37.0	37.0	43	16.6	0	2	0	0.00	30.389 
21:05	36.9	36.9	36.9	43	16.5	0	2	0	0.00	30.389 
21:10	36.8	36.8	36.8	42	15.9	0	2	0	0.00	30.389 
21:15	36.8	36.8	36.8	43	16.4	0	1	0	0.00	30.397 
21:20	36.6	36.6	36.6	43	16.2	1	3	0	0.00	30.397 
21:25	36.5	36.5	36.5	43	16.2	0	1	0	0.00	30.397 
21:30	36.3	36.3	36.3	43	16.0	0	2	0	0.00	30.409 
21:35	36.2	36.2	36.2	42	15.3	0	2	0	0.00	30.409 
21:40	36.0	36.0	36.0	42	15.2	0	2	0	0.00	30.409 
21:45	35.9	35.9	35.9	42	15.1	0	1	0	0.00	30.415 
21:50	35.8	35.8	35.8	42	15.0	0	1	0	0.00	30.415 
21:55	35.6	35.6	35.6	42	14.8	0	1	0	0.00	30.415 
22:00	35.5	35.5	35.5	42	14.7	0	2	0	0.00	30.427 
22:05	35.3	35.3	35.3	43	15.1	0	0	---	0.00	30.427 
22:10	35.0	35.0	35.0	43	14.8	0	0	---	0.00	30.427 
22:15	34.7	34.7	34.7	44	15.0	0	0	---	0.00	30.429 
22:20	34.4	34.4	34.4	45	15.3	0	0	---	0.00	30.429 
22:25	34.1	34.1	34.1	45	15.0	0	1	0	0.00	30.429 
22:30	33.8	33.8	33.8	45	14.7	0	0	---	0.00	30.436 
22:35	33.7	33.7	33.7	46	15.1	0	0	---	0.00	30.436 
22:40	33.5	33.5	33.5	46	15.0	0	0	---	0.00	30.436 
22:45	33.2	33.2	33.2	49	16.1	0	0	---	0.00	30.442 
22:50	32.8	32.8	32.8	50	16.2	0	0	---	0.00	30.442 
22:55	32.4	32.4	32.4	50	15.9	0	0	---	0.00	30.442 
23:00	32.1	32.1	32.1	50	15.6	0	0	---	0.00	30.445 
23:05	31.8	31.8	31.8	52	16.2	0	0	---	0.00	30.445 
23:10	31.5	31.5	31.5	53	16.4	0	0	---	0.00	30.445 
23:15	31.2	31.2	31.2	53	16.1	0	0	---	0.00	30.450 
23:20	31.0	31.0	31.0	54	16.3	0	0	---	0.00	30.450 
23:25	30.7	30.7	30.7	56	16.9	0	0	---	0.00	30.450 
23:30	30.6	30.6	30.6	56	16.8	0	0	---	0.00	30.456 
23:35	30.3	30.3	30.3	57	16.9	0	0	---	0.00	30.456 
23:40	30.1	30.1	30.1	58	17.1	0	0	---	0.00	30.456 
23:45	29.8	29.8	29.8	58	16.8	0	0	---	0.00	30.459 
23:50	29.7	29.7	29.7	59	17.1	0	0	---	0.00	30.459 
23:55	29.4	29.4	29.4	60	17.3	0	0	---	0.00	30.459 

CoCoRaHS
IN-AL-39
A2 Web Hosting
Creative Commons License
GoDaddy
search engine by freefind advanced

loaded 2018-11-12 16:03:25 • last modified 2010-11-18 10:43:29
Privacy PolicyDisclaimer
• wx.awcolley.com is powered by PmWiki v.2002016 •
• all content (unless otherwise noted) © 2018 A W Colley